Time,TemperatureF,DewpointF,PressureIn,WindDirection,WindDirectionDegrees,WindSpeedMPH,WindSpeedGustMPH,Humidity,HourlyPrecipIn,Conditions,Clouds,dailyrainin,SolarRadiationWatts/m^2,SoftwareType,DateUTC
2013-09-16 00:22:00,57.0,56.0,-100.00,WNW,286,14.0,22.0,96,0.00,,,0.00,0.000000,,2013-09-16 07:22:00,
2013-09-16 00:32:00,57.0,56.0,-100.00,WNW,286,14.0,22.0,96,0.00,,,0.00,0.000000,,2013-09-16 07:32:00,
2013-09-16 00:43:00,57.0,56.0,-100.00,WNW,286,14.0,22.0,96,0.00,,,0.00,0.000000,,2013-09-16 07:43:00,
2013-09-16 00:51:00,57.0,56.0,-100.00,WNW,286,13.0,20.0,96,0.00,,,0.00,0.000000,,2013-09-16 07:51:00,
2013-09-16 01:22:00,57.0,56.0,-100.00,WNW,286,13.0,20.0,96,0.00,,,0.00,0.000000,,2013-09-16 08:22:00,
2013-09-16 01:31:00,57.0,56.0,-100.00,WNW,286,13.0,20.0,96,0.00,,,0.00,0.000000,,2013-09-16 08:31:00,
2013-09-16 01:42:00,57.0,56.0,-100.00,WNW,286,13.0,20.0,96,0.00,,,0.00,0.000000,,2013-09-16 08:42:00,
2013-09-16 01:51:00,56.0,55.0,-100.00,West,281,11.0,18.0,96,0.00,,,0.00,0.000000,,2013-09-16 08:51:00,
2013-09-16 02:22:00,56.0,55.0,-100.00,West,281,11.0,18.0,96,0.00,,,0.00,0.000000,,2013-09-16 09:22:00,
2013-09-16 02:33:00,56.0,55.0,-100.00,West,281,11.0,18.0,96,0.00,,,0.00,0.000000,,2013-09-16 09:33:00,
2013-09-16 02:43:00,56.0,55.0,-100.00,West,281,11.0,18.0,96,0.00,,,0.00,0.000000,,2013-09-16 09:43:00,
2013-09-16 02:51:00,55.0,54.0,-100.00,West,279,8.0,14.0,96,0.00,,,0.00,0.000000,,2013-09-16 09:51:00,
2013-09-16 03:23:00,55.0,54.0,-100.00,West,279,8.0,14.0,96,0.00,,,0.00,0.000000,,2013-09-16 10:23:00,
2013-09-16 03:32:00,55.0,54.0,-100.00,West,279,8.0,14.0,96,0.00,,,0.00,0.000000,,2013-09-16 10:32:00,
2013-09-16 03:42:00,55.0,54.0,-100.00,West,279,8.0,14.0,96,0.00,,,0.00,0.000000,,2013-09-16 10:42:00,
2013-09-16 03:51:00,55.0,54.0,-100.00,West,275,10.0,13.0,96,0.00,,,0.00,0.000000,,2013-09-16 10:51:00,
2013-09-16 04:22:00,55.0,54.0,-100.00,West,275,10.0,13.0,96,0.00,,,0.00,0.000000,,2013-09-16 11:22:00,
2013-09-16 04:33:00,55.0,54.0,-100.00,West,275,10.0,13.0,96,0.00,,,0.00,0.000000,,2013-09-16 11:33:00,
2013-09-16 04:42:00,55.0,54.0,-100.00,West,275,10.0,13.0,96,0.00,,,0.00,0.000000,,2013-09-16 11:42:00,
2013-09-16 04:51:00,55.0,54.0,-100.00,West,273,11.0,17.0,96,0.00,,,0.00,0.000000,,2013-09-16 11:51:00,
2013-09-16 05:22:00,55.0,54.0,-100.00,West,273,11.0,17.0,96,0.00,,,0.00,0.000000,,2013-09-16 12:22:00,
2013-09-16 05:32:00,55.0,54.0,-100.00,West,273,11.0,17.0,96,0.00,,,0.00,0.000000,,2013-09-16 12:32:00,
2013-09-16 05:42:00,55.0,54.0,-100.00,West,273,11.0,17.0,96,0.00,,,0.00,0.000000,,2013-09-16 12:42:00,
2013-09-16 05:51:00,55.0,54.0,-100.00,West,272,11.0,16.0,96,0.00,,,0.00,0.000000,,2013-09-16 12:51:00,
2013-09-16 06:21:00,55.0,54.0,-100.00,West,272,11.0,16.0,96,0.00,,,0.00,0.000000,,2013-09-16 13:21:00,
2013-09-16 06:32:00,55.0,54.0,-100.00,West,272,11.0,16.0,96,0.00,,,0.00,0.000000,,2013-09-16 13:32:00,
2013-09-16 06:42:00,55.0,54.0,-100.00,West,272,11.0,16.0,96,0.00,,,0.00,0.000000,,2013-09-16 13:42:00,
2013-09-16 06:51:00,53.0,52.0,-100.00,West,265,12.0,15.0,96,0.00,,,-99.99,0.000000,,2013-09-16 13:51:00,
2013-09-16 07:21:00,53.0,52.0,-100.00,West,265,12.0,15.0,96,0.00,,,-99.99,0.000000,,2013-09-16 14:21:00,
2013-09-16 07:32:00,53.0,52.0,-100.00,West,265,12.0,15.0,96,0.00,,,-99.99,0.000000,,2013-09-16 14:32:00,
2013-09-16 07:42:00,53.0,52.0,-100.00,West,265,12.0,15.0,96,0.00,,,-99.99,0.000000,,2013-09-16 14:42:00,
2013-09-16 07:51:00,55.0,54.0,-100.00,West,272,10.0,16.0,95,0.00,,,-99.99,67.000000,,2013-09-16 14:51:00,
2013-09-16 08:22:00,55.0,54.0,-100.00,West,272,10.0,16.0,95,0.00,,,-99.99,67.000000,,2013-09-16 15:22:00,
2013-09-16 08:33:00,55.0,54.0,-100.00,West,272,10.0,16.0,95,0.00,,,-99.99,67.000000,,2013-09-16 15:33:00,
2013-09-16 08:43:00,55.0,54.0,-100.00,West,272,10.0,16.0,95,0.00,,,-99.99,67.000000,,2013-09-16 15:43:00,
2013-09-16 08:51:00,61.0,57.0,-100.00,West,277,7.0,12.0,86,0.00,,,0.00,250.000000,,2013-09-16 15:51:00,
2013-09-16 09:23:00,61.0,57.0,-100.00,West,277,7.0,12.0,86,0.00,,,0.00,250.000000,,2013-09-16 16:23:00,
2013-09-16 09:32:00,61.0,57.0,-100.00,West,277,7.0,12.0,86,0.00,,,0.00,250.000000,,2013-09-16 16:32:00,
2013-09-16 09:43:00,61.0,57.0,-100.00,West,277,7.0,12.0,86,0.00,,,0.00,250.000000,,2013-09-16 16:43:00,
2013-09-16 09:51:00,68.0,58.0,-100.00,WNW,298,3.0,8.0,70,0.00,,,0.00,429.000000,,2013-09-16 16:51:00,
2013-09-16 10:42:00,68.0,58.0,-100.00,WNW,298,3.0,8.0,70,0.00,,,0.00,429.000000,,2013-09-16 17:42:00,
2013-09-16 10:51:00,72.0,57.0,-100.00,West,281,7.0,11.0,59,0.00,,,0.00,600.000000,,2013-09-16 17:51:00,
2013-09-16 11:22:00,72.0,57.0,-100.00,West,281,7.0,11.0,59,0.00,,,0.00,600.000000,,2013-09-16 18:22:00,
2013-09-16 11:32:00,72.0,57.0,-100.00,West,281,7.0,11.0,59,0.00,,,0.00,600.000000,,2013-09-16 18:32:00,
2013-09-16 11:42:00,72.0,57.0,-100.00,West,281,7.0,11.0,59,0.00,,,0.00,600.000000,,2013-09-16 18:42:00,
2013-09-16 11:51:00,77.0,56.0,-100.00,WNW,292,7.0,10.0,49,0.00,,,0.00,729.000000,,2013-09-16 18:51:00,
2013-09-16 12:42:00,77.0,56.0,-100.00,WNW,292,7.0,10.0,49,0.00,,,0.00,729.000000,,2013-09-16 19:42:00,
2013-09-16 12:51:00,80.0,55.0,-100.00,WNW,285,6.0,13.0,43,0.00,,,0.00,804.000000,,2013-09-16 19:51:00,
2013-09-16 15:24:00,77.0,53.0,-100.00,West,278,14.0,19.0,43,-99.99,,,0.00,773.000000,,2013-09-16 22:24:00,
2013-09-16 15:33:00,77.0,53.0,-100.00,West,278,14.0,19.0,43,-99.99,,,0.00,773.000000,,2013-09-16 22:33:00,
2013-09-16 15:42:00,77.0,53.0,-100.00,West,278,14.0,19.0,43,-99.99,,,0.00,773.000000,,2013-09-16 22:42:00,
2013-09-16 15:51:00,72.0,51.0,-100.00,WNW,296,15.0,25.0,47,-99.99,,,0.00,670.000000,,2013-09-16 22:51:00,
2013-09-16 16:22:00,72.0,51.0,-100.00,WNW,296,15.0,25.0,47,-99.99,,,0.00,670.000000,,2013-09-16 23:22:00,
2013-09-16 16:34:00,72.0,51.0,-100.00,WNW,296,15.0,25.0,47,-99.99,,,0.00,670.000000,,2013-09-16 23:34:00,
2013-09-16 16:43:00,72.0,51.0,-100.00,WNW,296,15.0,25.0,47,-99.99,,,0.00,670.000000,,2013-09-16 23:43:00,
2013-09-16 16:51:00,68.0,51.0,-100.00,West,281,19.0,27.0,54,0.00,,,0.00,520.000000,,2013-09-16 23:51:00,
2013-09-16 17:21:00,68.0,51.0,-100.00,West,281,19.0,27.0,54,0.00,,,0.00,520.000000,,2013-09-17 00:21:00,
2013-09-16 17:32:00,68.0,51.0,-100.00,West,281,19.0,27.0,54,0.00,,,0.00,520.000000,,2013-09-17 00:32:00,
2013-09-16 17:42:00,68.0,51.0,-100.00,West,281,19.0,27.0,54,0.00,,,0.00,520.000000,,2013-09-17 00:42:00,
2013-09-16 17:51:00,64.0,50.0,-100.00,WNW,288,19.0,30.0,61,0.00,,,0.00,339.000000,,2013-09-17 00:51:00,
2013-09-16 18:21:00,64.0,50.0,-100.00,WNW,288,19.0,30.0,61,0.00,,,0.00,339.000000,,2013-09-17 01:21:00,
2013-09-16 18:32:00,64.0,50.0,-100.00,WNW,288,19.0,30.0,61,0.00,,,0.00,339.000000,,2013-09-17 01:32:00,
2013-09-16 18:42:00,64.0,50.0,-100.00,WNW,288,19.0,30.0,61,0.00,,,0.00,339.000000,,2013-09-17 01:42:00,
2013-09-16 18:51:00,59.0,50.0,-100.00,WNW,285,20.0,31.0,72,0.00,,,0.00,148.000000,,2013-09-17 01:51:00,
2013-09-16 19:22:00,59.0,50.0,-100.00,WNW,285,20.0,31.0,72,0.00,,,0.00,148.000000,,2013-09-17 02:22:00,
2013-09-16 19:32:00,59.0,50.0,-100.00,WNW,285,20.0,31.0,72,0.00,,,0.00,148.000000,,2013-09-17 02:32:00,
2013-09-16 19:42:00,59.0,50.0,-100.00,WNW,285,20.0,31.0,72,0.00,,,0.00,148.000000,,2013-09-17 02:42:00,
2013-09-16 19:51:00,55.0,51.0,-100.00,WNW,282,20.0,31.0,86,0.00,,,0.00,8.000000,,2013-09-17 02:51:00,
2013-09-16 20:23:00,55.0,51.0,-100.00,WNW,282,20.0,31.0,86,0.00,,,0.00,8.000000,,2013-09-17 03:23:00,
2013-09-16 20:34:00,55.0,51.0,-100.00,WNW,282,20.0,31.0,86,0.00,,,0.00,8.000000,,2013-09-17 03:34:00,
2013-09-16 20:45:00,55.0,51.0,-100.00,WNW,282,20.0,31.0,86,0.00,,,0.00,8.000000,,2013-09-17 03:45:00,
2013-09-16 20:51:00,54.0,50.0,-100.00,West,281,19.0,29.0,86,0.00,,,0.00,0.000000,,2013-09-17 03:51:00,
2013-09-16 21:24:00,54.0,50.0,-100.00,West,281,19.0,29.0,86,0.00,,,0.00,0.000000,,2013-09-17 04:24:00,
2013-09-16 21:34:00,54.0,50.0,-100.00,West,281,19.0,29.0,86,0.00,,,0.00,0.000000,,2013-09-17 04:34:00,
2013-09-16 21:44:00,54.0,50.0,-100.00,West,281,19.0,29.0,86,0.00,,,0.00,0.000000,,2013-09-17 04:44:00,
2013-09-16 21:51:00,54.0,51.0,-100.00,West,280,21.0,33.0,89,0.00,,,0.00,0.000000,,2013-09-17 04:51:00,
2013-09-16 22:23:00,54.0,51.0,-100.00,West,280,21.0,33.0,89,0.00,,,0.00,0.000000,,2013-09-17 05:23:00,
2013-09-16 22:34:00,54.0,51.0,-100.00,West,280,21.0,33.0,89,0.00,,,0.00,0.000000,,2013-09-17 05:34:00,
2013-09-16 22:42:00,54.0,51.0,-100.00,West,280,21.0,33.0,89,0.00,,,0.00,0.000000,,2013-09-17 05:42:00,
2013-09-16 22:51:00,54.0,52.0,-100.00,West,279,21.0,33.0,93,0.00,,,0.00,0.000000,,2013-09-17 05:51:00,
2013-09-16 23:22:00,54.0,52.0,-100.00,West,279,21.0,33.0,93,0.00,,,0.00,0.000000,,2013-09-17 06:22:00,
2013-09-16 23:32:00,54.0,52.0,-100.00,West,279,21.0,33.0,93,0.00,,,0.00,0.000000,,2013-09-17 06:32:00,
2013-09-16 23:42:00,54.0,52.0,-100.00,West,279,21.0,33.0,93,0.00,,,0.00,0.000000,,2013-09-17 06:42:00,
2013-09-16 23:51:00,54.0,52.0,-100.00,WNW,289,17.0,32.0,94,0.00,,,0.00,0.000000,,2013-09-17 06:51:00,